createdAt,value
2018-07-21T00:00:03.829Z,16.40
2018-07-21T00:02:34.679Z,16.42
2018-07-21T00:05:05.682Z,13.78
2018-07-21T00:07:36.660Z,15.25
2018-07-21T00:10:07.683Z,16.48
2018-07-21T00:12:39.056Z,18.70
2018-07-21T00:15:09.754Z,15.43
2018-07-21T00:17:40.694Z,14.35
2018-07-21T00:20:11.604Z,15.63
2018-07-21T00:22:44.815Z,16.02
2018-07-21T00:25:14.689Z,14.15
2018-07-21T00:27:44.789Z,12.87
2018-07-21T00:30:15.714Z,13.25
2018-07-21T00:32:47.169Z,22.45
2018-07-21T00:35:17.873Z,24.56
2018-07-21T00:37:48.870Z,24.87
2018-07-21T00:40:19.692Z,27.07
2018-07-21T00:42:50.632Z,30.92
2018-07-21T00:45:21.641Z,26.80
2018-07-21T00:47:52.638Z,31.00
2018-07-21T00:50:23.611Z,30.05
2018-07-21T00:52:53.670Z,18.40
2018-07-21T00:55:24.621Z,27.07
2018-07-21T00:57:55.673Z,22.30
2018-07-21T01:00:26.684Z,20.50
2018-07-21T01:02:57.710Z,22.82
2018-07-21T01:05:28.802Z,22.48
2018-07-21T01:08:00.628Z,22.25
2018-07-21T01:10:30.597Z,24.70
2018-07-21T01:13:01.682Z,21.77
2018-07-21T01:15:32.652Z,21.45
2018-07-21T01:18:03.621Z,19.77
2018-07-21T01:20:34.729Z,19.60
2018-07-21T01:23:06.136Z,21.62
2018-07-21T01:25:38.421Z,26.23
2018-07-21T01:28:09.569Z,25.75
2018-07-21T01:30:39.577Z,20.68
2018-07-21T01:33:09.542Z,25.20
2018-07-21T01:35:40.561Z,24.43
2018-07-21T01:38:11.613Z,19.77
2018-07-21T01:40:42.873Z,23.22
2018-07-21T01:43:14.142Z,22.17
2018-07-21T01:45:44.752Z,22.26
2018-07-21T01:48:15.781Z,18.80
2018-07-21T01:50:46.795Z,19.65
2018-07-21T01:53:17.704Z,18.32
2018-07-21T01:55:48.697Z,18.70
2018-07-21T01:58:19.813Z,17.52
2018-07-21T02:00:51.140Z,17.55
2018-07-21T02:03:21.942Z,20.50
2018-07-21T02:05:52.784Z,15.43
2018-07-21T02:08:23.741Z,14.85
2018-07-21T02:10:54.653Z,17.70
2018-07-21T02:13:25.597Z,17.57
2018-07-21T02:15:57.279Z,14.83
2018-07-21T02:18:27.910Z,18.36
2018-07-21T02:20:58.692Z,18.32
2018-07-21T02:23:29.699Z,14.38
2018-07-21T02:26:00.607Z,16.82
2018-07-21T02:28:31.724Z,16.45
2018-07-21T02:31:02.676Z,19.35
2018-07-21T02:33:33.638Z,13.58
2018-07-21T02:36:04.658Z,13.88
2018-07-21T02:38:36.086Z,15.65
2018-07-21T02:41:06.828Z,17.20
2018-07-21T02:43:37.848Z,18.70
2018-07-21T02:46:09.150Z,17.57
2018-07-21T02:48:39.909Z,18.18
2018-07-21T02:51:10.675Z,15.45
2018-07-21T02:53:41.687Z,15.72
2018-07-21T02:56:12.679Z,16.32
2018-07-21T02:58:45.101Z,12.73
2018-07-21T03:01:15.084Z,12.90
2018-07-21T03:03:45.797Z,16.48
2018-07-21T03:06:16.671Z,12.93
2018-07-21T03:08:53.369Z,15.90
2018-07-21T03:11:23.307Z,13.73
2018-07-21T03:13:53.266Z,15.03
2018-07-21T03:16:23.716Z,11.62
2018-07-21T03:18:53.675Z,14.27
2018-07-21T03:21:23.633Z,13.50
2018-07-21T03:23:55.320Z,14.10
2018-07-21T03:26:25.252Z,12.43
2018-07-21T03:28:56.212Z,14.65
2018-07-21T03:31:27.969Z,13.75
2018-07-21T03:33:57.925Z,15.23
2018-07-21T03:36:28.740Z,15.60
2018-07-21T03:38:59.690Z,15.72
2018-07-21T03:41:30.678Z,16.40
2018-07-21T03:44:01.651Z,15.50
2018-07-21T03:46:32.479Z,13.58
2018-07-21T03:49:02.485Z,13.50
2018-07-21T03:51:33.441Z,14.63
2018-07-21T03:54:04.588Z,13.00
2018-07-21T03:56:35.630Z,16.62
2018-07-21T03:59:08.321Z,12.43
2018-07-21T04:01:38.199Z,15.43
2018-07-21T04:04:09.946Z,14.52
2018-07-21T04:06:39.851Z,13.50
2018-07-21T04:09:12.677Z,17.23
2018-07-21T04:11:42.582Z,16.07
2018-07-21T04:14:12.548Z,13.70
2018-07-21T04:16:43.495Z,16.80
2018-07-21T04:19:14.684Z,17.50
2018-07-21T04:21:46.527Z,16.87
2018-07-21T04:24:16.593Z,18.73
2018-07-21T04:26:47.678Z,18.05
2018-07-21T04:29:18.637Z,21.07
2018-07-21T04:31:50.083Z,15.36
2018-07-21T04:34:20.754Z,19.02
2018-07-21T04:36:52.036Z,14.10
2018-07-21T04:39:22.751Z,15.90
2018-07-21T04:41:54.687Z,16.87
2018-07-21T04:44:24.676Z,15.50
2018-07-21T04:46:55.728Z,15.83
2018-07-21T04:49:27.564Z,14.85
2018-07-21T04:51:57.521Z,17.93
2018-07-21T04:54:29.397Z,15.67
2018-07-21T04:56:59.363Z,22.25
2018-07-21T04:59:30.790Z,17.00
2018-07-21T05:02:01.698Z,16.32
2018-07-21T05:04:32.658Z,14.43
2018-07-21T05:07:03.575Z,15.50
2018-07-21T05:09:34.478Z,17.23
2018-07-21T05:12:05.951Z,18.32
2018-07-21T05:14:36.652Z,16.48
2018-07-21T05:17:07.518Z,16.30
2018-07-21T05:19:38.549Z,14.50
2018-07-21T05:22:09.443Z,15.50
2018-07-21T05:24:40.767Z,16.88
2018-07-21T05:27:11.713Z,14.55
2018-07-21T05:29:43.135Z,20.25
2018-07-21T05:32:16.063Z,16.57
2018-07-21T05:34:46.625Z,16.17
2018-07-21T05:37:16.593Z,12.98
2018-07-21T05:39:46.487Z,16.70
2018-07-21T05:42:17.764Z,13.14
2018-07-21T05:44:49.139Z,15.85
2018-07-21T05:47:19.741Z,16.00
2018-07-21T05:49:50.662Z,17.85
2018-07-21T05:52:21.581Z,17.15
2018-07-21T05:54:52.879Z,18.00
2018-07-21T05:57:23.586Z,18.35
2018-07-21T05:59:54.489Z,12.63
2018-07-21T06:02:25.378Z,15.15
2018-07-21T06:04:56.699Z,10.86
2018-07-21T06:07:27.468Z,14.03
2018-07-21T06:09:58.796Z,12.16
2018-07-21T06:12:29.648Z,17.25
2018-07-21T06:15:00.537Z,21.10
2018-07-21T06:17:31.390Z,19.12
2018-07-21T06:20:02.991Z,20.80
2018-07-21T06:22:33.713Z,15.03
2018-07-21T06:25:04.876Z,14.30
2018-07-21T06:27:35.634Z,15.13
2018-07-21T06:30:07.306Z,54.05
2018-07-21T06:32:37.833Z,19.70
2018-07-21T06:35:09.061Z,20.92
2018-07-21T06:37:39.690Z,16.42
2018-07-21T06:40:10.635Z,20.00
2018-07-21T06:42:41.624Z,14.23
2018-07-21T06:45:12.522Z,16.32
2018-07-21T06:47:43.475Z,12.75
2018-07-21T06:50:14.557Z,13.25
2018-07-21T06:52:45.494Z,12.98
2018-07-21T06:55:16.423Z,12.37
2018-07-21T06:57:47.318Z,15.48
2018-07-21T07:00:18.741Z,10.52
2018-07-21T07:02:50.687Z,8.05
2018-07-21T07:05:20.920Z,8.77
2018-07-21T07:07:51.782Z,11.06
2018-07-21T07:10:22.961Z,10.55
2018-07-21T07:12:53.886Z,8.98
2018-07-21T07:15:24.632Z,9.75
2018-07-21T07:17:55.808Z,10.78
2018-07-21T07:20:26.721Z,13.95
2018-07-21T07:23:02.933Z,9.05
2018-07-21T07:25:33.723Z,6.95
2018-07-21T07:28:03.597Z,11.00
2018-07-21T07:30:33.490Z,8.03
2018-07-21T07:33:03.367Z,9.87
2018-07-21T07:35:33.321Z,8.50
2018-07-21T07:38:03.787Z,9.78
2018-07-21T07:40:34.602Z,8.13
2018-07-21T07:43:05.479Z,9.15
2018-07-21T07:45:36.402Z,7.28
2018-07-21T07:48:08.025Z,11.02
2018-07-21T07:50:38.635Z,9.28
2018-07-21T07:53:09.576Z,9.95
2018-07-21T07:55:40.442Z,8.25
2018-07-21T07:58:11.322Z,7.25
2018-07-21T08:00:43.078Z,7.66
2018-07-21T08:03:13.693Z,7.35
2018-07-21T08:05:44.520Z,7.30
2018-07-21T08:08:15.349Z,7.20
2018-07-21T08:10:46.789Z,9.18
2018-07-21T08:13:17.540Z,7.62
2018-07-21T08:15:48.398Z,8.40
2018-07-21T08:18:19.728Z,6.60
2018-07-21T08:20:50.660Z,9.75
2018-07-21T08:23:21.463Z,7.92
2018-07-21T08:25:52.365Z,9.63
2018-07-21T08:28:23.311Z,6.53
2018-07-21T08:30:54.697Z,6.96
2018-07-21T08:33:25.445Z,6.87
2018-07-21T08:35:56.467Z,9.68
2018-07-21T08:38:31.372Z,8.48
2018-07-21T08:41:01.289Z,6.30
2018-07-21T08:43:31.105Z,6.97
2018-07-21T08:46:00.964Z,6.10
2018-07-21T08:48:31.730Z,7.22
2018-07-21T08:51:02.587Z,8.33
2018-07-21T08:53:33.835Z,6.75
2018-07-21T08:56:04.664Z,7.35
2018-07-21T08:58:35.633Z,6.87
2018-07-21T09:01:07.577Z,6.40
2018-07-21T09:03:37.441Z,9.30
2018-07-21T09:06:08.367Z,7.12
2018-07-21T09:08:39.626Z,6.84
2018-07-21T09:11:10.466Z,8.43
2018-07-21T09:13:41.355Z,7.95
2018-07-21T09:16:12.561Z,6.60
2018-07-21T09:18:44.195Z,7.35
2018-07-21T09:21:14.724Z,8.10
2018-07-21T09:23:45.515Z,6.28
2018-07-21T09:26:16.416Z,7.65
2018-07-21T09:28:47.723Z,7.72
2018-07-21T09:31:17.932Z,6.45
2018-07-21T09:33:48.569Z,8.00
2018-07-21T09:36:19.386Z,7.58
2018-07-21T09:47:44.014Z,7.50
2018-07-21T09:50:14.270Z,7.80
2018-07-21T09:52:44.068Z,6.40
2018-07-21T09:55:13.877Z,7.87
2018-07-21T09:57:43.935Z,8.03
2018-07-21T10:00:17.751Z,7.43
2018-07-21T10:02:47.851Z,11.30
2018-07-21T10:05:17.674Z,9.83
2018-07-21T10:07:47.730Z,6.77
2018-07-21T10:10:17.674Z,7.97
2018-07-21T10:12:47.760Z,6.33
2018-07-21T10:15:17.665Z,6.30
2018-07-21T10:17:47.600Z,6.17
2018-07-21T10:20:17.743Z,6.55
2018-07-21T10:22:47.801Z,7.13
2018-07-21T10:25:22.623Z,10.17
2018-07-21T10:27:57.387Z,10.07
2018-07-21T10:30:27.207Z,6.17
2018-07-21T10:32:57.069Z,6.83
2018-07-21T10:35:26.961Z,7.17
2018-07-21T10:37:56.953Z,7.13
2018-07-21T10:40:26.872Z,6.43
2018-07-21T10:42:56.852Z,8.90
2018-07-21T10:45:27.109Z,7.17
2018-07-21T10:47:57.263Z,7.50
2018-07-21T10:50:27.156Z,9.30
2018-07-21T10:52:56.996Z,9.03
2018-07-21T10:55:26.822Z,6.57
2018-07-21T10:57:56.656Z,6.53
2018-07-21T11:00:26.607Z,10.43
2018-07-21T11:02:56.632Z,6.50
2018-07-21T11:05:26.643Z,6.00
2018-07-21T11:07:56.811Z,12.40
2018-07-21T11:10:26.728Z,9.87
2018-07-21T11:13:03.472Z,6.67
2018-07-21T11:15:33.657Z,9.65
2018-07-21T11:18:03.784Z,7.67
2018-07-21T11:20:33.668Z,7.47
2018-07-21T11:23:03.765Z,7.40
2018-07-21T11:25:33.589Z,6.00
2018-07-21T11:28:03.744Z,8.43
2018-07-21T11:30:33.626Z,6.27
2018-07-21T11:33:03.456Z,8.83
2018-07-21T11:35:33.619Z,5.93
2018-07-21T11:38:03.725Z,7.47
2018-07-21T11:40:33.581Z,6.77
2018-07-21T11:43:03.704Z,7.90
2018-07-21T11:45:33.726Z,6.27
2018-07-21T11:48:03.973Z,6.40
2018-07-21T11:50:33.845Z,6.80
2018-07-21T11:53:03.691Z,7.70
2018-07-21T11:55:33.678Z,5.97
2018-07-21T11:58:03.580Z,7.00
2018-07-21T12:00:33.604Z,7.47
2018-07-21T12:03:03.751Z,6.70
2018-07-21T12:05:33.697Z,5.90
2018-07-21T12:08:04.063Z,6.40
2018-07-21T12:10:33.836Z,6.47
2018-07-21T12:13:03.737Z,6.00
2018-07-21T12:15:33.757Z,6.90
2018-07-21T12:18:03.707Z,8.87
2018-07-21T12:20:33.658Z,8.17
2018-07-21T12:23:03.629Z,9.80
2018-07-21T12:25:33.644Z,7.00
2018-07-21T12:28:03.637Z,6.17
2018-07-21T12:30:33.769Z,5.90
2018-07-21T12:33:03.591Z,6.97
2018-07-21T12:35:33.699Z,9.93
2018-07-21T12:38:03.679Z,8.33
2018-07-21T12:40:33.598Z,8.13
2018-07-21T12:43:03.664Z,7.03
2018-07-21T12:45:41.393Z,7.63
2018-07-21T12:48:11.220Z,7.23
2018-07-21T12:50:41.059Z,8.70
2018-07-21T12:53:10.926Z,7.00
2018-07-21T12:55:40.740Z,8.00
2018-07-21T12:58:10.698Z,6.27
2018-07-21T13:00:40.650Z,7.50
2018-07-21T13:03:11.063Z,6.33
2018-07-21T13:05:41.064Z,10.03
2018-07-21T13:08:10.978Z,7.23
2018-07-21T13:10:40.790Z,7.10
2018-07-21T13:13:10.630Z,10.47
2018-07-21T13:15:40.594Z,7.07
2018-07-21T13:18:11.426Z,7.57
2018-07-21T13:20:41.318Z,7.23
2018-07-21T13:23:11.252Z,7.77
2018-07-21T13:25:41.157Z,9.10
2018-07-21T13:28:11.139Z,7.00
2018-07-21T13:30:41.466Z,6.57
2018-07-21T13:33:11.754Z,6.57
2018-07-21T13:35:41.654Z,6.57
2018-07-21T13:38:11.617Z,9.10
2018-07-21T13:40:42.125Z,10.13
2018-07-21T13:43:11.949Z,9.10
2018-07-21T13:45:42.024Z,6.40
2018-07-21T13:48:12.382Z,7.00
2018-07-21T13:50:42.557Z,6.92
2018-07-21T13:53:12.704Z,7.65
2018-07-21T13:55:42.594Z,7.10
2018-07-21T13:58:13.041Z,7.47
2018-07-21T14:00:43.044Z,8.53
2018-07-21T14:03:13.540Z,10.08
2018-07-21T14:05:43.344Z,7.83
2018-07-21T14:08:13.177Z,6.57
2018-07-21T14:10:43.299Z,6.83
2018-07-21T14:13:13.295Z,6.80
2018-07-21T14:15:43.283Z,6.57
2018-07-21T14:18:13.175Z,8.80
2018-07-21T14:20:43.073Z,7.20
2018-07-21T14:23:13.486Z,7.05
2018-07-21T14:25:43.310Z,6.50
2018-07-21T14:28:14.093Z,9.03
2018-07-21T14:30:43.975Z,7.77
2018-07-21T14:33:14.691Z,10.72
2018-07-21T14:35:45.560Z,7.45
2018-07-21T14:38:16.719Z,11.78
2018-07-21T14:40:47.569Z,11.38
2018-07-21T14:43:18.733Z,6.12
2018-07-21T14:45:49.542Z,7.80
2018-07-21T14:48:20.408Z,9.98
2018-07-21T14:50:51.391Z,5.83
2018-07-21T14:53:22.371Z,5.78
2018-07-21T14:55:53.364Z,6.83
2018-07-21T14:58:24.763Z,6.56
2018-07-21T15:00:55.571Z,5.60
2018-07-21T15:03:26.577Z,5.83
2018-07-21T15:05:57.360Z,5.60
2018-07-21T15:08:28.714Z,5.72
2018-07-21T15:10:59.673Z,6.15
2018-07-21T15:13:30.569Z,6.65
2018-07-21T15:16:01.442Z,10.78
2018-07-21T15:18:32.886Z,6.64
2018-07-21T15:21:06.689Z,7.74
2018-07-21T15:23:36.661Z,7.17
2018-07-21T15:26:06.666Z,6.60
2018-07-21T15:28:36.513Z,5.23
2018-07-21T15:31:07.383Z,5.65
2018-07-21T15:33:38.312Z,7.65
2018-07-21T15:36:09.988Z,7.62
2018-07-21T15:38:40.705Z,6.05
2018-07-21T15:41:11.497Z,6.80
2018-07-21T15:43:42.433Z,5.62
2018-07-21T15:46:13.372Z,7.15
2018-07-21T15:48:44.794Z,10.32
2018-07-21T15:51:15.634Z,9.43
2018-07-21T15:53:46.463Z,6.50
2018-07-21T15:56:17.349Z,8.70
2018-07-21T15:58:48.776Z,6.44
2018-07-21T16:01:19.671Z,5.97
2018-07-21T16:03:51.512Z,9.40
2018-07-21T16:06:21.344Z,7.40
2018-07-21T16:08:52.808Z,9.60
2018-07-21T16:11:23.590Z,8.65
2018-07-21T16:13:54.447Z,5.47
2018-07-21T16:16:25.518Z,5.42
2018-07-21T16:18:56.792Z,6.05
2018-07-21T16:21:28.075Z,6.35
2018-07-21T16:23:58.759Z,6.75
2018-07-21T16:26:29.524Z,5.58
2018-07-21T16:29:00.411Z,7.95
2018-07-21T16:31:31.906Z,7.22
2018-07-21T16:34:02.620Z,4.72
2018-07-21T16:36:33.445Z,6.10
2018-07-21T16:39:05.385Z,6.60
2018-07-21T16:41:35.321Z,6.25
2018-07-21T16:44:07.388Z,7.44
2018-07-21T16:46:37.386Z,6.15
2018-07-21T16:49:08.381Z,5.40
2018-07-21T16:51:39.385Z,7.50
2018-07-21T16:54:10.391Z,7.00
2018-07-21T16:56:42.469Z,5.83
2018-07-21T16:59:12.371Z,6.75
2018-07-21T17:01:44.347Z,8.35
2018-07-21T17:04:14.249Z,6.75
2018-07-21T17:06:45.595Z,9.14
2018-07-21T17:09:16.402Z,6.37
2018-07-21T17:11:47.295Z,6.75
2018-07-21T17:14:18.628Z,8.54
2018-07-21T17:16:49.445Z,10.63
2018-07-21T17:19:20.380Z,10.95
2018-07-21T17:21:51.688Z,7.82
2018-07-21T17:24:22.566Z,7.10
2018-07-21T17:26:53.712Z,7.97
2018-07-21T17:29:24.547Z,6.83
2018-07-21T17:31:55.163Z,7.64
2018-07-21T17:34:25.724Z,9.38
2018-07-21T17:36:56.942Z,6.75
2018-07-21T17:39:27.626Z,9.13
2018-07-21T17:41:58.452Z,7.83
2018-07-21T17:44:29.373Z,9.33
2018-07-21T17:47:00.747Z,9.72
2018-07-21T17:49:31.598Z,6.45
2018-07-21T17:52:02.397Z,6.90
2018-07-21T17:54:33.377Z,8.95
2018-07-21T17:57:04.842Z,8.42
2018-07-21T17:59:35.565Z,7.80
2018-07-21T18:02:06.526Z,7.62
2018-07-21T18:04:37.553Z,10.13
2018-07-21T18:07:08.388Z,7.83
2018-07-21T18:09:39.693Z,7.82
2018-07-21T18:12:10.473Z,9.35
2018-07-21T18:14:41.414Z,13.28
2018-07-21T18:17:12.389Z,7.92
2018-07-21T18:19:43.442Z,7.30
2018-07-21T18:22:14.338Z,11.12
2018-07-21T18:24:45.670Z,7.08
2018-07-21T18:27:17.612Z,14.13
2018-07-21T18:29:47.408Z,7.63
2018-07-21T18:32:18.669Z,10.22
2018-07-21T18:34:48.543Z,10.83
2018-07-21T18:37:19.355Z,11.90
2018-07-21T18:39:50.853Z,11.72
2018-07-21T18:42:21.552Z,9.93
2018-07-21T18:44:52.491Z,13.35
2018-07-21T18:47:23.949Z,11.60
2018-07-21T18:49:54.656Z,11.28
2018-07-21T18:52:25.397Z,9.40
2018-07-21T18:54:56.416Z,14.05
2018-07-21T18:57:28.282Z,15.80
2018-07-21T18:59:58.702Z,14.30
2018-07-21T19:02:28.509Z,14.00
2018-07-21T19:04:59.427Z,17.62
2018-07-21T19:07:30.331Z,10.82
2018-07-21T19:10:01.690Z,27.16
2018-07-21T19:12:37.569Z,22.52
2018-07-21T19:15:07.518Z,13.68
2018-07-21T19:17:37.329Z,14.27
2018-07-21T19:20:12.259Z,14.37
2018-07-21T19:22:42.354Z,14.73
2018-07-21T19:25:17.232Z,15.37
2018-07-21T19:27:47.080Z,21.57
2018-07-21T19:30:17.055Z,15.27
2018-07-21T19:32:52.283Z,14.07
2018-07-21T19:35:22.122Z,15.50
2018-07-21T19:37:52.493Z,15.93
2018-07-21T19:40:22.359Z,17.47
2018-07-21T19:42:52.254Z,19.40
2018-07-21T19:45:22.183Z,27.13
2018-07-21T19:47:52.152Z,33.43
2018-07-21T19:50:22.107Z,19.67
2018-07-21T19:52:52.024Z,23.65
2018-07-21T19:55:22.109Z,17.53
2018-07-21T19:57:51.891Z,17.47
2018-07-21T20:00:28.418Z,15.23
2018-07-21T20:02:58.214Z,19.70
2018-07-21T20:05:28.125Z,21.13
2018-07-21T20:07:58.077Z,18.33
2018-07-21T20:10:28.055Z,15.43
2018-07-21T20:12:57.937Z,18.67
2018-07-21T20:15:27.751Z,21.33
2018-07-21T20:17:57.645Z,19.40
2018-07-21T20:20:28.439Z,17.55
2018-07-21T20:22:59.421Z,18.17
2018-07-21T20:25:30.690Z,15.58
2018-07-21T20:28:01.562Z,19.75
2018-07-21T20:30:32.436Z,21.35
2018-07-21T20:33:03.493Z,15.80
2018-07-21T20:35:34.391Z,18.55
2018-07-21T20:38:05.843Z,15.34
2018-07-21T20:40:36.710Z,17.87
2018-07-21T20:43:07.728Z,20.75
2018-07-21T20:45:38.642Z,20.02
2018-07-21T20:48:09.617Z,20.40
2018-07-21T20:50:40.474Z,24.15
2018-07-21T20:53:11.824Z,25.16
2018-07-21T20:55:42.687Z,23.50
2018-07-21T20:58:13.566Z,24.50
2018-07-21T21:00:44.444Z,21.27
2018-07-21T21:03:15.529Z,22.77
2018-07-21T21:05:46.567Z,23.30
2018-07-21T21:08:17.783Z,20.85
2018-07-21T21:10:47.761Z,21.67
2018-07-21T21:13:18.740Z,25.62
2018-07-21T21:15:49.739Z,29.67
2018-07-21T21:18:20.828Z,23.77
2018-07-21T21:20:51.782Z,17.37
2018-07-21T21:23:22.696Z,23.30
2018-07-21T21:25:54.262Z,24.90
2018-07-21T21:28:24.722Z,23.84
2018-07-21T21:30:55.823Z,19.17
2018-07-21T21:33:26.581Z,30.50
2018-07-21T21:35:58.659Z,26.87
2018-07-21T21:38:28.787Z,20.57
2018-07-21T21:40:59.646Z,18.12
2018-07-21T21:43:30.514Z,19.07
2018-07-21T21:46:01.447Z,21.25
2018-07-21T21:48:32.924Z,20.50
2018-07-21T21:51:03.649Z,21.33
2018-07-21T21:53:34.557Z,22.07
2018-07-21T21:56:06.070Z,17.82
2018-07-21T21:58:36.637Z,19.42
2018-07-21T22:01:10.407Z,18.07
2018-07-21T22:03:40.212Z,15.03
2018-07-21T22:06:10.142Z,16.07
2018-07-21T22:08:40.854Z,15.45
2018-07-21T22:11:11.773Z,17.90
2018-07-21T22:13:42.663Z,15.93
2018-07-21T22:16:13.498Z,17.60
2018-07-21T22:18:44.523Z,14.58
2018-07-21T22:21:15.813Z,15.35
2018-07-21T22:23:46.678Z,15.68
2018-07-21T22:26:17.569Z,16.45
2018-07-21T22:28:48.898Z,18.27
2018-07-21T22:31:20.234Z,18.34
2018-07-21T22:33:50.765Z,18.22
2018-07-21T22:36:21.681Z,16.97
2018-07-21T22:38:52.523Z,17.10
2018-07-21T22:41:23.424Z,18.75
2018-07-21T22:43:54.326Z,13.65
2018-07-21T22:46:25.770Z,17.50
2018-07-21T22:48:56.649Z,14.73
2018-07-21T22:51:27.536Z,16.60
2018-07-21T22:53:58.379Z,19.50
2018-07-21T22:56:29.753Z,19.06
2018-07-21T22:59:00.610Z,14.95
2018-07-21T23:01:31.497Z,17.55
2018-07-21T23:04:02.754Z,17.38
2018-07-21T23:06:33.656Z,14.83
2018-07-21T23:09:04.863Z,12.63
2018-07-21T23:11:35.610Z,15.53
2018-07-21T23:14:06.590Z,17.23
2018-07-21T23:16:37.535Z,13.88
2018-07-21T23:19:08.837Z,15.45
2018-07-21T23:21:39.683Z,16.90
2018-07-21T23:24:10.554Z,18.52
2018-07-21T23:26:41.765Z,16.50
2018-07-21T23:29:12.586Z,17.90
2018-07-21T23:31:44.115Z,18.34
2018-07-21T23:34:15.058Z,14.32
2018-07-21T23:36:45.678Z,15.28
2018-07-21T23:39:16.543Z,14.20
2018-07-21T23:41:47.463Z,15.08
2018-07-21T23:44:19.223Z,17.34
2018-07-21T23:46:49.665Z,15.12
2018-07-21T23:49:20.539Z,19.57
2018-07-21T23:51:51.422Z,17.87
2018-07-21T23:54:22.430Z,15.45
2018-07-21T23:56:53.380Z,16.37
2018-07-21T23:59:24.868Z,16.72
